www.hobby-wetter-faasend.de
Wetterdaten: aktuell Freitag, 22.09.2017 08:00
Datum Zeit Temp. A. Temp. A. min Temp. A. max Feuchte A. Luftdruck Regen Wind Richtung Richtung Sonnenschein Taupunkt Windchill Windben
22.09.2017 08:00 5,1 C 5,1 C 5,1 C 94 % 1020,4 hPa 0,0 l/m 0,0 km/h (0 Bft) O-NO 68 0 min 4,2 C 5,1 C 0,0 km/h (0 Bft)
22.09.2017 07:45 5,1 C 5,1 C 5,1 C 93 % 1020,2 hPa 0,0 l/m 0,0 km/h (0 Bft) O-NO 68 0 min 4,1 C 5,1 C 0,0 km/h (0 Bft)
22.09.2017 07:30 5,1 C 5,1 C 5,2 C 93 % 1020,0 hPa 0,0 l/m 0,0 km/h (0 Bft) O-NO 68 0 min 4,1 C 5,1 C 0,0 km/h (0 Bft)
22.09.2017 07:15 5,2 C 5,2 C 5,3 C 93 % 1020,0 hPa 0,0 l/m 0,0 km/h (0 Bft) O-NO 68 0 min 4,2 C 5,2 C 0,0 km/h (0 Bft)
22.09.2017 07:00 5,3 C 5,3 C 5,4 C 93 % 1020,0 hPa 0,0 l/m 0,0 km/h (0 Bft) O-NO 68 0 min 4,3 C 5,3 C 0,0 km/h (0 Bft)
22.09.2017 06:45 5,4 C 5,4 C 5,5 C 93 % 1019,9 hPa 0,0 l/m 0,0 km/h (0 Bft) O-NO 68 0 min 4,4 C 5,4 C 0,0 km/h (0 Bft)
22.09.2017 06:30 5,5 C 5,5 C 5,7 C 93 % 1019,8 hPa 0,0 l/m 0,0 km/h (0 Bft) O-NO 68 0 min 4,5 C 5,5 C 0,0 km/h (0 Bft)
22.09.2017 06:15 5,7 C 5,7 C 5,8 C 93 % 1019,7 hPa 0,0 l/m 0,0 km/h (0 Bft) O-NO 68 0 min 4,7 C 5,7 C 0,0 km/h (0 Bft)
22.09.2017 06:00 5,8 C 5,8 C 6,0 C 93 % 1019,6 hPa 0,0 l/m 0,0 km/h (0 Bft) O-NO 68 0 min 4,8 C 5,8 C 0,0 km/h (0 Bft)
22.09.2017 05:45 6,0 C 5,9 C 6,1 C 93 % 1019,6 hPa 0,0 l/m 0,0 km/h (0 Bft) O-NO 68 0 min 5,0 C 6,0 C 0,0 km/h (0 Bft)
22.09.2017 05:30 6,1 C 6,1 C 6,2 C 93 % 1019,6 hPa 0,0 l/m 0,0 km/h (0 Bft) O-NO 68 0 min 5,1 C 6,1 C 0,0 km/h (0 Bft)
22.09.2017 05:15 6,2 C 6,2 C 6,3 C 93 % 1019,7 hPa 0,0 l/m 0,0 km/h (0 Bft) O-NO 68 0 min 5,2 C 6,2 C 0,0 km/h (0 Bft)
22.09.2017 05:00 6,3 C 6,3 C 6,4 C 93 % 1019,6 hPa 0,0 l/m 0,0 km/h (0 Bft) O-NO 68 0 min 5,3 C 6,3 C 0,0 km/h (0 Bft)
22.09.2017 04:45 6,4 C 6,4 C 6,6 C 93 % 1019,6 hPa 0,0 l/m 0,0 km/h (0 Bft) O-NO 68 0 min 5,4 C 6,4 C 0,0 km/h (0 Bft)
22.09.2017 04:30 6,6 C 6,6 C 6,7 C 92 % 1019,6 hPa 0,0 l/m 0,0 km/h (0 Bft) O-NO 68 0 min 5,4 C 6,6 C 0,0 km/h (0 Bft)
22.09.2017 04:15 6,7 C 6,7 C 6,8 C 93 % 1019,6 hPa 0,0 l/m 0,0 km/h (0 Bft) O-NO 68 0 min 5,6 C 6,7 C 0,0 km/h (0 Bft)
22.09.2017 04:00 6,8 C 6,8 C 6,8 C 93 % 1019,6 hPa 0,0 l/m 0,0 km/h (0 Bft) O-NO 68 0 min 5,7 C 6,8 C 0,0 km/h (0 Bft)
22.09.2017 03:45 6,8 C 6,8 C 6,9 C 92 % 1019,7 hPa 0,0 l/m 0,0 km/h (0 Bft) O-NO 68 0 min 5,6 C 6,8 C 0,0 km/h (0 Bft)
22.09.2017 03:30 6,9 C 6,9 C 7,0 C 92 % 1019,7 hPa 0,0 l/m 0,0 km/h (0 Bft) O-NO 68 0 min 5,7 C 6,9 C 0,0 km/h (0 Bft)
22.09.2017 03:15 7,0 C 6,9 C 7,0 C 92 % 1019,9 hPa 0,0 l/m 0,0 km/h (0 Bft) O-NO 68 0 min 5,8 C 7,0 C 0,0 km/h (0 Bft)
22.09.2017 03:00 6,9 C 6,9 C 6,9 C 92 % 1019,9 hPa 0,0 l/m 0,0 km/h (0 Bft) O-NO 68 0 min 5,7 C 6,9 C 0,0 km/h (0 Bft)
22.09.2017 02:45 6,9 C 6,9 C 6,9 C 92 % 1019,9 hPa 0,0 l/m 0,0 km/h (0 Bft) O-NO 68 0 min 5,7 C 6,9 C 0,0 km/h (0 Bft)
22.09.2017 02:30 6,9 C 6,9 C 7,1 C 91 % 1020,0 hPa 0,0 l/m 0,0 km/h (0 Bft) O-NO 68 0 min 5,5 C 6,9 C 0,0 km/h (0 Bft)
22.09.2017 02:15 7,0 C 7,0 C 7,2 C 91 % 1020,1 hPa 0,0 l/m 0,0 km/h (0 Bft) O-NO 68 0 min 5,6 C 7,0 C 0,0 km/h (0 Bft)
22.09.2017 02:00 7,2 C 7,2 C 7,3 C 91 % 1020,1 hPa 0,0 l/m 0,0 km/h (0 Bft) O-NO 68 0 min 5,8 C 7,2 C 0,0 km/h (0 Bft)
22.09.2017 01:45 7,3 C 7,3 C 7,5 C 91 % 1020,1 hPa 0,0 l/m 0,0 km/h (0 Bft) O-NO 68 0 min 5,9 C 7,3 C 0,0 km/h (0 Bft)
22.09.2017 01:30 7,5 C 7,5 C 7,7 C 91 % 1020,0 hPa 0,0 l/m 0,0 km/h (0 Bft) O-NO 68 0 min 6,1 C 7,5 C 0,0 km/h (0 Bft)
22.09.2017 01:15 7,7 C 7,6 C 7,8 C 91 % 1019,9 hPa 0,0 l/m 0,0 km/h (0 Bft) O-NO 68 0 min 6,3 C 7,7 C 0,0 km/h (0 Bft)
22.09.2017 01:00 7,8 C 7,8 C 7,9 C 91 % 1019,8 hPa 0,0 l/m 0,0 km/h (0 Bft) O-NO 68 0 min 6,4 C 7,8 C 0,0 km/h (0 Bft)
22.09.2017 00:45 7,9 C 7,9 C 8,1 C 90 % 1019,8 hPa 0,0 l/m 0,0 km/h (0 Bft) O-NO 68 0 min 6,4 C 7,9 C 0,0 km/h (0 Bft)
22.09.2017 00:31 8,1 C 8,1 C 8,2 C 90 % 1019,8 hPa 0,0 l/m 0,0 km/h (0 Bft) O-NO 68 0 min 6,6 C 8,1 C 0,0 km/h (0 Bft)
22.09.2017 00:15 8,2 C 8,2 C 8,3 C 90 % 1019,8 hPa 0,0 l/m 0,0 km/h (0 Bft) O-NO 68 0 min 6,7 C 8,2 C 0,0 km/h (0 Bft)
22.09.2017 00:00 8,3 C 8,3 C 8,5 C 89 % 1019,7 hPa 0,0 l/m 0,0 km/h (0 Bft) O-NO 68 0 min 6,6 C 8,3 C 0,0 km/h (0 Bft)
21.09.2017 23:45 8,5 C 8,5 C 8,7 C 89 % 1019,8 hPa 0,0 l/m 0,0 km/h (0 Bft) O-NO 68 0 min 6,8 C 8,5 C 0,0 km/h (0 Bft)
21.09.2017 23:30 8,7 C 8,7 C 8,9 C 89 % 1019,7 hPa 0,0 l/m 0,0 km/h (0 Bft) O-NO 68 0 min 7,0 C 8,7 C 0,0 km/h (0 Bft)
21.09.2017 23:15 8,9 C 8,9 C 9,1 C 88 % 1019,7 hPa 0,0 l/m 0,0 km/h (0 Bft) O-NO 68 0 min 7,0 C 8,9 C 0,0 km/h (0 Bft)
21.09.2017 23:00 9,1 C 9,1 C 9,3 C 88 % 1019,7 hPa 0,0 l/m 0,0 km/h (0 Bft) O-NO 68 0 min 7,2 C 9,1 C 0,0 km/h (0 Bft)
21.09.2017 22:45 9,3 C 9,3 C 9,6 C 88 % 1019,7 hPa 0,0 l/m 0,0 km/h (0 Bft) O-NO 68 0 min 7,4 C 9,3 C 0,0 km/h (0 Bft)
21.09.2017 22:30 9,5 C 9,5 C 9,8 C 87 % 1019,6 hPa 0,0 l/m 0,0 km/h (0 Bft) O-NO 68 0 min 7,4 C 9,5 C 0,0 km/h (0 Bft)
21.09.2017 22:15 9,8 C 9,8 C 10,1 C 87 % 1019,5 hPa 0,0 l/m 0,0 km/h (0 Bft) O-NO 68 0 min 7,7 C 9,8 C 0,0 km/h (0 Bft)
21.09.2017 22:00 10,1 C 10,1 C 10,4 C 87 % 1019,5 hPa 0,0 l/m 0,0 km/h (0 Bft) O-NO 68 0 min 8,0 C 10,1 C 0,0 km/h (0 Bft)
21.09.2017 21:45 10,4 C 10,4 C 10,8 C 86 % 1019,5 hPa 0,0 l/m 0,0 km/h (0 Bft) O-NO 68 0 min 8,2 C 10,4 C 0,0 km/h (0 Bft)
21.09.2017 21:30 10,8 C 10,8 C 11,1 C 86 % 1019,5 hPa 0,0 l/m 0,0 km/h (0 Bft) O-NO 68 0 min 8,6 C 10,8 C 0,0 km/h (0 Bft)
21.09.2017 21:15 11,1 C 11,1 C 11,6 C 86 % 1019,4 hPa 0,0 l/m 0,0 km/h (0 Bft) O-NO 68 0 min 8,8 C 11,1 C 0,0 km/h (0 Bft)
21.09.2017 21:00 11,6 C 11,6 C 12,1 C 84 % 1019,5 hPa 0,0 l/m 0,0 km/h (0 Bft) O-NO 68 0 min 9,0 C 11,6 C 0,0 km/h (0 Bft)
21.09.2017 20:45 12,1 C 12,1 C 12,7 C 83 % 1019,4 hPa 0,0 l/m 0,0 km/h (0 Bft) O-NO 68 0 min 9,3 C 12,1 C 0,0 km/h (0 Bft)
21.09.2017 20:30 12,7 C 12,7 C 13,3 C 81 % 1019,4 hPa 0,0 l/m 0,0 km/h (0 Bft) O-NO 68 0 min 9,5 C 12,7 C 0,0 km/h (0 Bft)
21.09.2017 20:15 13,3 C 13,3 C 14,1 C 80 % 1019,3 hPa 0,0 l/m 0,0 km/h (0 Bft) O-NO 68 0 min 9,9 C 13,3 C 1,6 km/h (1 Bft)
21.09.2017 20:00 14,1 C 14,1 C 14,9 C 78 % 1019,2 hPa 0,0 l/m 0,0 km/h (0 Bft) O-NO 68 0 min 10,3 C 14,1 C 1,6 km/h (1 Bft)
21.09.2017 19:45 14,9 C 14,9 C 15,9 C 76 % 1019,1 hPa 0,0 l/m 0,0 km/h (0 Bft) O-NO 68 0 min 10,7 C 14,9 C 0,0 km/h (0 Bft)
21.09.2017 19:30 15,9 C 15,9 C 17,1 C 73 % 1019,0 hPa 0,0 l/m 0,0 km/h (0 Bft) O-NO 68 0 min 11,1 C 15,9 C 0,0 km/h (0 Bft)
21.09.2017 19:15 17,1 C 17,1 C 17,9 C 68 % 1018,9 hPa 0,0 l/m 0,0 km/h (0 Bft) O-NO 68 0 min 11,1 C 17,1 C 0,0 km/h (0 Bft)
21.09.2017 19:00 17,9 C 17,9 C 18,2 C 65 % 1018,9 hPa 0,0 l/m 0,0 km/h (0 Bft) O-NO 68 0 min 11,2 C 17,9 C 0,0 km/h (0 Bft)
21.09.2017 18:45 18,2 C 18,2 C 18,4 C 58 % 1018,8 hPa 0,0 l/m 0,2 km/h (0 Bft) O-NO 68 0 min 9,8 C 18,2 C 4,8 km/h (1 Bft)
21.09.2017 18:30 18,4 C 18,4 C 18,6 C 55 % 1018,9 hPa 0,0 l/m 0,1 km/h (0 Bft) O-NO 68 0 min 9,2 C 18,4 C 3,2 km/h (1 Bft)
21.09.2017 18:15 18,5 C 18,5 C 18,8 C 53 % 1018,9 hPa 0,0 l/m 1,0 km/h (0 Bft) O-NO 68 0 min 8,7 C 18,5 C 9,7 km/h (2 Bft)
21.09.2017 18:00 18,8 C 18,8 C 19,0 C 52 % 1018,9 hPa 0,0 l/m 0,7 km/h (0 Bft) O 90 0 min 8,7 C 18,8 C 9,7 km/h (2 Bft)
21.09.2017 17:45 19,0 C 18,9 C 19,0 C 51 % 1018,9 hPa 0,0 l/m 2,2 km/h (1 Bft) S 169 0 min 8,6 C 19,0 C 11,3 km/h (2 Bft)
21.09.2017 17:30 18,9 C 18,9 C 18,9 C 52 % 1018,9 hPa 0,0 l/m 1,1 km/h (1 Bft) O-SO 102 0 min 8,8 C 18,9 C 6,4 km/h (2 Bft)
21.09.2017 17:15 18,9 C 18,8 C 19,1 C 51 % 1018,9 hPa 0,0 l/m 1,2 km/h (1 Bft) S-SO 159 0 min 8,5 C 18,9 C 8,0 km/h (2 Bft)
21.09.2017 17:00 19,1 C 19,0 C 19,3 C 50 % 1018,9 hPa 0,0 l/m 2,4 km/h (1 Bft) O-SO 120 0 min 8,4 C 19,1 C 11,3 km/h (2 Bft)
21.09.2017 16:45 19,1 C 18,9 C 19,2 C 49 % 1019,0 hPa 0,0 l/m 2,1 km/h (1 Bft) S-SO 167 0 min 8,1 C 19,1 C 12,9 km/h (3 Bft)
21.09.2017 16:30 19,1 C 18,9 C 19,3 C 49 % 1019,2 hPa 0,0 l/m 2,6 km/h (1 Bft) S-SO 163 0 min 8,1 C 19,1 C 11,3 km/h (2 Bft)
21.09.2017 16:15 19,2 C 18,7 C 19,2 C 48 % 1019,2 hPa 0,0 l/m 3,9 km/h (1 Bft) S 175 0 min 7,9 C 19,2 C 12,9 km/h (3 Bft)
21.09.2017 16:00 18,7 C 18,6 C 19,3 C 50 % 1019,3 hPa 0,0 l/m 3,8 km/h (1 Bft) O-SO 103 0 min 8,1 C 18,7 C 11,3 km/h (2 Bft)
21.09.2017 15:45 19,3 C 18,7 C 19,3 C 51 % 1019,5 hPa 0,0 l/m 2,3 km/h (1 Bft) O-SO 113 0 min 8,9 C 19,3 C 9,7 km/h (2 Bft)
21.09.2017 15:30 18,8 C 18,7 C 19,1 C 52 % 1019,5 hPa 0,0 l/m 3,2 km/h (1 Bft) O 85 0 min 8,7 C 18,8 C 14,5 km/h (3 Bft)
21.09.2017 15:15 19,1 C 18,9 C 19,4 C 52 % 1019,5 hPa 0,0 l/m 4,5 km/h (1 Bft) S-SO 165 0 min 9,0 C 19,1 C 14,5 km/h (3 Bft)
21.09.2017 15:00 19,4 C 18,6 C 19,6 C 53 % 1019,6 hPa 0,0 l/m 1,9 km/h (1 Bft) O 95 0 min 9,6 C 19,4 C 12,9 km/h (3 Bft)
21.09.2017 14:45 18,8 C 18,2 C 18,9 C 55 % 1019,8 hPa 0,0 l/m 5,1 km/h (1 Bft) S 173 0 min 9,6 C 18,8 C 20,9 km/h (4 Bft)
21.09.2017 14:30 18,2 C 18,2 C 18,8 C 60 % 1019,9 hPa 0,0 l/m 2,4 km/h (1 Bft) SO 132 0 min 10,3 C 18,2 C 9,7 km/h (2 Bft)
21.09.2017 14:15 18,3 C 18,0 C 18,6 C 58 % 1020,0 hPa 0,0 l/m 2,8 km/h (1 Bft) SO 130 0 min 9,9 C 18,3 C 11,3 km/h (2 Bft)
21.09.2017 14:00 18,6 C 17,7 C 18,6 C 60 % 1020,1 hPa 0,0 l/m 3,0 km/h (1 Bft) O 90 0 min 10,7 C 18,6 C 17,7 km/h (3 Bft)
21.09.2017 13:45 17,7 C 17,4 C 17,8 C 64 % 1020,3 hPa 0,0 l/m 2,7 km/h (1 Bft) SO 142 0 min 10,8 C 17,7 C 11,3 km/h (2 Bft)
21.09.2017 13:30 17,6 C 17,4 C 17,8 C 61 % 1020,5 hPa 0,0 l/m 3,0 km/h (1 Bft) O-SO 119 0 min 10,0 C 17,6 C 14,5 km/h (3 Bft)
21.09.2017 13:15 17,4 C 16,7 C 17,4 C 63 % 1020,6 hPa 0,0 l/m 2,7 km/h (1 Bft) SO 130 0 min 10,3 C 17,4 C 11,3 km/h (2 Bft)
21.09.2017 13:00 16,8 C 16,5 C 17,1 C 67 % 1020,7 hPa 0,0 l/m 1,5 km/h (1 Bft) N 355 0 min 10,6 C 16,8 C 14,5 km/h (3 Bft)
21.09.2017 12:45 16,5 C 16,1 C 16,5 C 70 % 1020,7 hPa 0,0 l/m 1,2 km/h (1 Bft) SO 138 0 min 11,0 C 16,5 C 11,3 km/h (2 Bft)
21.09.2017 12:30 16,2 C 15,6 C 16,3 C 72 % 1020,9 hPa 0,0 l/m 2,2 km/h (1 Bft) O-NO 60 0 min 11,1 C 16,2 C 11,3 km/h (2 Bft)
21.09.2017 12:15 15,7 C 15,3 C 15,7 C 76 % 1021,0 hPa 0,2 l/m 1,0 km/h (0 Bft) O-SO 105 0 min 11,5 C 15,7 C 6,4 km/h (2 Bft)
21.09.2017 12:00 15,5 C 14,7 C 15,5 C 77 % 1021,1 hPa 0,0 l/m 0,8 km/h (0 Bft) S 171 0 min 11,5 C 15,5 C 8,0 km/h (2 Bft)
21.09.2017 11:45 14,7 C 14,5 C 14,9 C 78 % 1021,2 hPa 0,0 l/m 0,9 km/h (0 Bft) O-SO 119 0 min 10,9 C 14,7 C 8,0 km/h (2 Bft)
21.09.2017 11:30 14,6 C 13,4 C 14,6 C 82 % 1021,3 hPa 0,0 l/m 0,2 km/h (0 Bft) S-SO 156 0 min 11,6 C 14,6 C 8,0 km/h (2 Bft)
21.09.2017 11:15 13,5 C 12,8 C 13,7 C 83 % 1021,5 hPa 0,0 l/m 0,4 km/h (0 Bft) O-SO 103 0 min 10,7 C 13,5 C 6,4 km/h (2 Bft)
21.09.2017 11:00 12,8 C 11,3 C 12,8 C 87 % 1021,7 hPa 0,0 l/m 0,0 km/h (0 Bft) N 355 0 min 10,7 C 12,8 C 0,0 km/h (0 Bft)
21.09.2017 10:45 11,3 C 10,4 C 11,3 C 90 % 1021,8 hPa 0,0 l/m 0,0 km/h (0 Bft) N 355 0 min 9,7 C 11,3 C 1,6 km/h (1 Bft)
21.09.2017 10:30 10,4 C 9,4 C 10,4 C 93 % 1021,8 hPa 0,0 l/m 0,0 km/h (0 Bft) N 355 0 min 9,3 C 10,4 C 1,6 km/h (1 Bft)
21.09.2017 10:15 9,4 C 8,5 C 9,4 C 96 % 1021,8 hPa 0,0 l/m 0,0 km/h (0 Bft) N 355 0 min 8,8 C 9,4 C 0,0 km/h (0 Bft)
21.09.2017 10:00 8,5 C 7,7 C 8,5 C 97 % 1021,9 hPa 0,0 l/m 0,0 km/h (0 Bft) N 355 0 min 8,1 C 8,5 C 1,6 km/h (1 Bft)
21.09.2017 09:45 7,7 C 6,5 C 7,7 C 97 % 1021,9 hPa 0,0 l/m 0,0 km/h (0 Bft) SW 227 0 min 7,3 C 7,7 C 0,0 km/h (0 Bft)
21.09.2017 09:30 6,5 C 6,1 C 6,6 C 96 % 1021,9 hPa 0,0 l/m 0,0 km/h (0 Bft) SW 227 0 min 5,9 C 6,5 C 0,0 km/h (0 Bft)
21.09.2017 09:15 6,1 C 5,8 C 6,1 C 96 % 1021,9 hPa 0,0 l/m 0,0 km/h (0 Bft) SW 227 0 min 5,5 C 6,1 C 0,0 km/h (0 Bft)
21.09.2017 09:00 5,8 C 5,6 C 5,8 C 96 % 1021,9 hPa 0,0 l/m 0,0 km/h (0 Bft) SW 227 0 min 5,2 C 5,8 C 0,0 km/h (0 Bft)
_ Min-Zeit 07:30 07:30 07:45 16:15 18:45 - 09:00 - - - 07:30 07:30 09:00
Minimum _ 5,1 C 5,1 C 5,1 C 48 % 1018,8 hPa - 0,0 km/h (0 Bft) - - - 4,1 C 5,1 C 0,0 km/h (0 Bft)
_ Max-Zeit 15:00 17:00 15:00 09:45 09:00 12:15 14:45 - - 09:00 11:30 15:00 14:45
Maximum _ 19,6 C 19,0 C 19,6 C 97 % 1021,9 hPa 0,2 l/m 5,1 km/h
S (1 Bft)
- - 0 min 11,6 C 19,4 C 20,9 km/h
SO (4 Bft)
Durchschnitt _ 11,3 C 11,1 C 11,4 C 81 % 1020,1 hPa #0,2 l/m 0,6 km/h (0 Bft) O-SO - #0 min. 7,6 C 11,3 C 3,4 km/h (1 Bft)